sensor_id;sensor_type;location;lat;lon;timestamp;P1;durP1;ratioP1;P2;durP2;ratioP2
10166;SDS011;62970;53.130;8.244;2022-10-31T00:00:10;15.93;;;14.23;;
10166;SDS011;62970;53.130;8.244;2022-10-31T00:02:43;18.37;;;14.43;;
10166;SDS011;62970;53.130;8.244;2022-10-31T00:05:13;16.93;;;14.03;;
10166;SDS011;62970;53.130;8.244;2022-10-31T00:07:42;16.00;;;13.93;;
10166;SDS011;62970;53.130;8.244;2022-10-31T00:10:11;16.93;;;14.30;;
10166;SDS011;62970;53.130;8.244;2022-10-31T00:12:40;15.57;;;13.50;;
10166;SDS011;62970;53.130;8.244;2022-10-31T00:15:09;17.23;;;14.27;;
10166;SDS011;62970;53.130;8.244;2022-10-31T00:17:38;15.27;;;13.27;;
10166;SDS011;62970;53.130;8.244;2022-10-31T00:20:13;17.73;;;13.30;;
10166;SDS011;62970;53.130;8.244;2022-10-31T00:22:42;16.40;;;14.40;;
10166;SDS011;62970;53.130;8.244;2022-10-31T00:25:11;14.70;;;13.07;;
10166;SDS011;62970;53.130;8.244;2022-10-31T00:27:40;14.93;;;13.07;;
10166;SDS011;62970;53.130;8.244;2022-10-31T00:30:12;15.13;;;12.67;;
10166;SDS011;62970;53.130;8.244;2022-10-31T00:32:44;15.87;;;12.33;;
10166;SDS011;62970;53.130;8.244;2022-10-31T00:35:15;13.93;;;12.50;;
10166;SDS011;62970;53.130;8.244;2022-10-31T00:37:44;16.87;;;13.43;;
10166;SDS011;62970;53.130;8.244;2022-10-31T00:40:13;16.80;;;12.80;;
10166;SDS011;62970;53.130;8.244;2022-10-31T00:42:43;14.07;;;12.47;;
10166;SDS011;62970;53.130;8.244;2022-10-31T00:45:13;17.07;;;13.90;;
10166;SDS011;62970;53.130;8.244;2022-10-31T00:47:46;15.20;;;12.63;;
10166;SDS011;62970;53.130;8.244;2022-10-31T00:50:15;16.90;;;12.50;;
10166;SDS011;62970;53.130;8.244;2022-10-31T00:52:47;15.20;;;12.60;;
10166;SDS011;62970;53.130;8.244;2022-10-31T00:55:16;13.87;;;11.57;;
10166;SDS011;62970;53.130;8.244;2022-10-31T00:57:46;14.10;;;11.20;;
10166;SDS011;62970;53.130;8.244;2022-10-31T01:00:15;14.43;;;12.50;;
10166;SDS011;62970;53.130;8.244;2022-10-31T01:02:48;15.57;;;12.67;;
10166;SDS011;62970;53.130;8.244;2022-10-31T01:05:19;16.90;;;13.60;;
10166;SDS011;62970;53.130;8.244;2022-10-31T01:07:51;15.33;;;12.27;;
10166;SDS011;62970;53.130;8.244;2022-10-31T01:10:20;14.10;;;12.40;;
10166;SDS011;62970;53.130;8.244;2022-10-31T01:12:49;17.47;;;12.97;;
10166;SDS011;62970;53.130;8.244;2022-10-31T01:15:20;17.17;;;12.47;;
10166;SDS011;62970;53.130;8.244;2022-10-31T01:17:53;14.30;;;12.17;;
10166;SDS011;62970;53.130;8.244;2022-10-31T01:20:22;14.27;;;12.17;;
10166;SDS011;62970;53.130;8.244;2022-10-31T01:22:53;14.17;;;12.23;;
10166;SDS011;62970;53.130;8.244;2022-10-31T01:25:22;13.27;;;11.90;;
10166;SDS011;62970;53.130;8.244;2022-10-31T01:27:54;14.00;;;12.20;;
10166;SDS011;62970;53.130;8.244;2022-10-31T01:30:23;13.13;;;11.77;;
10166;SDS011;62970;53.130;8.244;2022-10-31T01:32:57;16.10;;;13.13;;
10166;SDS011;62970;53.130;8.244;2022-10-31T01:35:28;15.90;;;13.57;;
10166;SDS011;62970;53.130;8.244;2022-10-31T01:37:57;16.63;;;13.07;;
10166;SDS011;62970;53.130;8.244;2022-10-31T01:40:28;16.73;;;13.10;;
10166;SDS011;62970;53.130;8.244;2022-10-31T01:42:58;16.10;;;13.73;;
10166;SDS011;62970;53.130;8.244;2022-10-31T01:45:27;15.10;;;12.83;;
10166;SDS011;62970;53.130;8.244;2022-10-31T01:47:59;16.90;;;12.83;;
10166;SDS011;62970;53.130;8.244;2022-10-31T01:50:29;15.37;;;12.73;;
10166;SDS011;62970;53.130;8.244;2022-10-31T01:53:01;16.80;;;13.50;;
10166;SDS011;62970;53.130;8.244;2022-10-31T01:55:34;14.63;;;12.77;;
10166;SDS011;62970;53.130;8.244;2022-10-31T01:58:10;16.03;;;13.47;;
10166;SDS011;62970;53.130;8.244;2022-10-31T02:00:46;16.43;;;12.70;;
10166;SDS011;62970;53.130;8.244;2022-10-31T02:03:22;20.27;;;13.97;;
10166;SDS011;62970;53.130;8.244;2022-10-31T02:05:53;17.83;;;13.33;;
10166;SDS011;62970;53.130;8.244;2022-10-31T02:08:26;15.53;;;12.73;;
10166;SDS011;62970;53.130;8.244;2022-10-31T02:10:59;15.77;;;13.30;;
10166;SDS011;62970;53.130;8.244;2022-10-31T02:13:31;16.37;;;13.57;;
10166;SDS011;62970;53.130;8.244;2022-10-31T02:16:03;16.13;;;13.43;;
10166;SDS011;62970;53.130;8.244;2022-10-31T02:18:36;15.80;;;13.47;;
10166;SDS011;62970;53.130;8.244;2022-10-31T02:21:07;18.07;;;14.03;;
10166;SDS011;62970;53.130;8.244;2022-10-31T02:23:55;17.80;;;13.90;;
10166;SDS011;62970;53.130;8.244;2022-10-31T02:26:57;16.47;;;13.27;;
10166;SDS011;62970;53.130;8.244;2022-10-31T02:32:57;15.47;;;12.43;;
10166;SDS011;62970;53.130;8.244;2022-10-31T02:35:41;16.70;;;12.80;;
10166;SDS011;62970;53.130;8.244;2022-10-31T02:38:26;15.87;;;13.63;;
10166;SDS011;62970;53.130;8.244;2022-10-31T02:41:14;16.20;;;13.27;;
10166;SDS011;62970;53.130;8.244;2022-10-31T02:44:01;17.53;;;14.13;;
10166;SDS011;62970;53.130;8.244;2022-10-31T02:46:43;14.43;;;12.93;;
10166;SDS011;62970;53.130;8.244;2022-10-31T02:49:28;16.70;;;13.00;;
10166;SDS011;62970;53.130;8.244;2022-10-31T02:52:02;17.10;;;12.93;;
10166;SDS011;62970;53.130;8.244;2022-10-31T02:54:41;15.80;;;12.70;;
10166;SDS011;62970;53.130;8.244;2022-10-31T02:57:11;16.77;;;13.27;;
10166;SDS011;62970;53.130;8.244;2022-10-31T02:59:44;15.53;;;13.13;;
10166;SDS011;62970;53.130;8.244;2022-10-31T03:02:22;14.97;;;12.97;;
10166;SDS011;62970;53.130;8.244;2022-10-31T03:08:21;16.63;;;13.30;;
10166;SDS011;62970;53.130;8.244;2022-10-31T03:10:58;14.93;;;12.80;;
10166;SDS011;62970;53.130;8.244;2022-10-31T03:13:33;14.97;;;12.17;;
10166;SDS011;62970;53.130;8.244;2022-10-31T03:16:09;14.90;;;12.60;;
10166;SDS011;62970;53.130;8.244;2022-10-31T03:18:45;15.57;;;12.63;;
10166;SDS011;62970;53.130;8.244;2022-10-31T03:21:25;16.70;;;13.30;;
10166;SDS011;62970;53.130;8.244;2022-10-31T03:23:58;16.70;;;13.23;;
10166;SDS011;62970;53.130;8.244;2022-10-31T03:26:29;22.00;;;13.63;;
10166;SDS011;62970;53.130;8.244;2022-10-31T03:28:59;21.57;;;14.10;;
10166;SDS011;62970;53.130;8.244;2022-10-31T03:31:33;21.70;;;14.27;;
10166;SDS011;62970;53.130;8.244;2022-10-31T03:34:09;17.80;;;13.53;;
10166;SDS011;62970;53.130;8.244;2022-10-31T03:36:43;21.57;;;13.90;;
10166;SDS011;62970;53.130;8.244;2022-10-31T03:39:15;20.20;;;14.07;;
10166;SDS011;62970;53.130;8.244;2022-10-31T03:41:49;19.30;;;13.90;;
10166;SDS011;62970;53.130;8.244;2022-10-31T03:44:24;32.80;;;13.23;;
10166;SDS011;62970;53.130;8.244;2022-10-31T03:46:57;21.47;;;12.57;;
10166;SDS011;62970;53.130;8.244;2022-10-31T03:49:27;22.00;;;12.60;;
10166;SDS011;62970;53.130;8.244;2022-10-31T03:52:00;27.13;;;11.77;;
10166;SDS011;62970;53.130;8.244;2022-10-31T03:54:40;25.57;;;11.23;;
10166;SDS011;62970;53.130;8.244;2022-10-31T03:57:14;21.17;;;10.40;;
10166;SDS011;62970;53.130;8.244;2022-10-31T03:59:53;26.30;;;10.13;;
10166;SDS011;62970;53.130;8.244;2022-10-31T04:02:28;13.27;;;9.63;;
10166;SDS011;62970;53.130;8.244;2022-10-31T04:05:00;15.67;;;9.20;;
10166;SDS011;62970;53.130;8.244;2022-10-31T04:07:36;10.47;;;8.70;;
10166;SDS011;62970;53.130;8.244;2022-10-31T04:10:11;21.30;;;9.33;;
10166;SDS011;62970;53.130;8.244;2022-10-31T04:12:44;19.60;;;9.17;;
10166;SDS011;62970;53.130;8.244;2022-10-31T04:15:20;14.63;;;9.03;;
10166;SDS011;62970;53.130;8.244;2022-10-31T04:17:52;11.27;;;9.37;;
10166;SDS011;62970;53.130;8.244;2022-10-31T04:20:32;14.23;;;8.73;;
10166;SDS011;62970;53.130;8.244;2022-10-31T04:23:08;10.00;;;9.10;;
10166;SDS011;62970;53.130;8.244;2022-10-31T04:25:46;12.13;;;9.37;;
10166;SDS011;62970;53.130;8.244;2022-10-31T04:28:16;10.40;;;9.40;;
10166;SDS011;62970;53.130;8.244;2022-10-31T04:30:45;10.43;;;9.10;;
10166;SDS011;62970;53.130;8.244;2022-10-31T04:33:15;13.73;;;9.63;;
10166;SDS011;62970;53.130;8.244;2022-10-31T04:35:44;18.23;;;9.57;;
10166;SDS011;62970;53.130;8.244;2022-10-31T04:38:16;16.00;;;9.40;;
10166;SDS011;62970;53.130;8.244;2022-10-31T04:40:45;12.07;;;9.57;;
10166;SDS011;62970;53.130;8.244;2022-10-31T04:43:14;13.27;;;9.60;;
10166;SDS011;62970;53.130;8.244;2022-10-31T04:45:43;11.30;;;8.97;;
10166;SDS011;62970;53.130;8.244;2022-10-31T04:48:12;12.67;;;9.27;;
10166;SDS011;62970;53.130;8.244;2022-10-31T04:50:41;15.07;;;10.03;;
10166;SDS011;62970;53.130;8.244;2022-10-31T04:53:10;10.00;;;9.03;;
10166;SDS011;62970;53.130;8.244;2022-10-31T04:55:43;10.43;;;9.37;;
10166;SDS011;62970;53.130;8.244;2022-10-31T04:58:12;13.67;;;9.57;;
10166;SDS011;62970;53.130;8.244;2022-10-31T05:00:41;13.00;;;9.77;;
10166;SDS011;62970;53.130;8.244;2022-10-31T05:03:11;19.47;;;9.37;;
10166;SDS011;62970;53.130;8.244;2022-10-31T05:05:41;11.50;;;9.40;;
10166;SDS011;62970;53.130;8.244;2022-10-31T05:08:10;26.30;;;9.60;;
10166;SDS011;62970;53.130;8.244;2022-10-31T05:10:39;16.93;;;8.83;;
10166;SDS011;62970;53.130;8.244;2022-10-31T05:13:11;25.90;;;9.50;;
10166;SDS011;62970;53.130;8.244;2022-10-31T05:15:40;13.70;;;9.33;;
10166;SDS011;62970;53.130;8.244;2022-10-31T05:18:09;17.57;;;8.90;;
10166;SDS011;62970;53.130;8.244;2022-10-31T05:20:39;17.17;;;9.90;;
10166;SDS011;62970;53.130;8.244;2022-10-31T05:23:08;17.13;;;9.47;;
10166;SDS011;62970;53.130;8.244;2022-10-31T05:25:37;20.20;;;10.17;;
10166;SDS011;62970;53.130;8.244;2022-10-31T05:28:14;19.50;;;10.13;;
10166;SDS011;62970;53.130;8.244;2022-10-31T05:30:43;21.10;;;10.27;;
10166;SDS011;62970;53.130;8.244;2022-10-31T05:33:12;14.17;;;10.27;;
10166;SDS011;62970;53.130;8.244;2022-10-31T05:35:41;29.73;;;10.67;;
10166;SDS011;62970;53.130;8.244;2022-10-31T05:38:10;14.63;;;10.70;;
10166;SDS011;62970;53.130;8.244;2022-10-31T05:40:39;14.73;;;9.93;;
10166;SDS011;62970;53.130;8.244;2022-10-31T05:43:08;20.40;;;11.00;;
10166;SDS011;62970;53.130;8.244;2022-10-31T05:45:40;17.80;;;10.03;;
10166;SDS011;62970;53.130;8.244;2022-10-31T05:48:11;17.70;;;10.13;;
10166;SDS011;62970;53.130;8.244;2022-10-31T05:50:41;12.97;;;10.20;;
10166;SDS011;62970;53.130;8.244;2022-10-31T05:53:10;13.30;;;9.53;;
10166;SDS011;62970;53.130;8.244;2022-10-31T05:55:40;16.10;;;10.07;;
10166;SDS011;62970;53.130;8.244;2022-10-31T05:58:11;18.47;;;9.83;;
10166;SDS011;62970;53.130;8.244;2022-10-31T06:00:42;10.30;;;9.30;;
10166;SDS011;62970;53.130;8.244;2022-10-31T06:03:11;22.90;;;9.77;;
10166;SDS011;62970;53.130;8.244;2022-10-31T06:05:41;16.50;;;10.53;;
10166;SDS011;62970;53.130;8.244;2022-10-31T06:08:10;17.37;;;9.53;;
10166;SDS011;62970;53.130;8.244;2022-10-31T06:10:39;17.47;;;10.40;;
10166;SDS011;62970;53.130;8.244;2022-10-31T06:13:09;26.67;;;10.53;;
10166;SDS011;62970;53.130;8.244;2022-10-31T06:15:38;14.93;;;10.07;;
10166;SDS011;62970;53.130;8.244;2022-10-31T06:18:11;13.07;;;10.43;;
10166;SDS011;62970;53.130;8.244;2022-10-31T06:20:42;12.57;;;10.50;;
10166;SDS011;62970;53.130;8.244;2022-10-31T06:23:11;13.00;;;10.63;;
10166;SDS011;62970;53.130;8.244;2022-10-31T06:25:41;16.07;;;9.97;;
10166;SDS011;62970;53.130;8.244;2022-10-31T06:28:10;12.17;;;10.43;;
10166;SDS011;62970;53.130;8.244;2022-10-31T06:30:39;12.10;;;9.80;;
10166;SDS011;62970;53.130;8.244;2022-10-31T06:33:11;10.73;;;9.73;;
10166;SDS011;62970;53.130;8.244;2022-10-31T06:35:44;11.80;;;10.60;;
10166;SDS011;62970;53.130;8.244;2022-10-31T06:38:15;10.87;;;9.77;;
10166;SDS011;62970;53.130;8.244;2022-10-31T06:40:44;11.70;;;10.70;;
10166;SDS011;62970;53.130;8.244;2022-10-31T06:43:14;11.97;;;10.63;;
10166;SDS011;62970;53.130;8.244;2022-10-31T06:45:48;13.00;;;10.67;;
10166;SDS011;62970;53.130;8.244;2022-10-31T06:48:17;12.50;;;10.20;;
10166;SDS011;62970;53.130;8.244;2022-10-31T06:50:47;11.00;;;10.00;;
10166;SDS011;62970;53.130;8.244;2022-10-31T06:53:17;13.70;;;11.13;;
10166;SDS011;62970;53.130;8.244;2022-10-31T06:55:46;12.30;;;10.80;;
10166;SDS011;62970;53.130;8.244;2022-10-31T06:58:15;15.77;;;10.60;;
10166;SDS011;62970;53.130;8.244;2022-10-31T07:00:45;16.60;;;10.40;;
10166;SDS011;62970;53.130;8.244;2022-10-31T07:03:18;12.73;;;11.20;;
10166;SDS011;62970;53.130;8.244;2022-10-31T07:05:48;16.47;;;11.07;;
10166;SDS011;62970;53.130;8.244;2022-10-31T07:08:18;11.67;;;10.63;;
10166;SDS011;62970;53.130;8.244;2022-10-31T07:10:50;15.07;;;10.90;;
10166;SDS011;62970;53.130;8.244;2022-10-31T07:13:21;11.63;;;10.53;;
10166;SDS011;62970;53.130;8.244;2022-10-31T07:15:59;15.23;;;10.23;;
10166;SDS011;62970;53.130;8.244;2022-10-31T07:18:29;12.33;;;10.93;;
10166;SDS011;62970;53.130;8.244;2022-10-31T07:20:59;22.03;;;11.07;;
10166;SDS011;62970;53.130;8.244;2022-10-31T07:23:28;12.93;;;11.07;;
10166;SDS011;62970;53.130;8.244;2022-10-31T07:25:57;19.00;;;10.90;;
10166;SDS011;62970;53.130;8.244;2022-10-31T07:28:27;12.87;;;11.17;;
10166;SDS011;62970;53.130;8.244;2022-10-31T07:30:59;14.57;;;11.03;;
10166;SDS011;62970;53.130;8.244;2022-10-31T07:33:28;13.47;;;10.33;;
10166;SDS011;62970;53.130;8.244;2022-10-31T07:35:59;12.27;;;11.00;;
10166;SDS011;62970;53.130;8.244;2022-10-31T07:38:29;23.43;;;11.03;;
10166;SDS011;62970;53.130;8.244;2022-10-31T07:40:58;11.83;;;10.77;;
10166;SDS011;62970;53.130;8.244;2022-10-31T07:43:28;20.63;;;12.30;;
10166;SDS011;62970;53.130;8.244;2022-10-31T07:46:03;22.03;;;11.80;;
10166;SDS011;62970;53.130;8.244;2022-10-31T07:48:33;12.27;;;9.93;;
10166;SDS011;62970;53.130;8.244;2022-10-31T07:51:02;22.27;;;10.70;;
10166;SDS011;62970;53.130;8.244;2022-10-31T07:53:32;11.57;;;10.07;;
10166;SDS011;62970;53.130;8.244;2022-10-31T07:56:01;29.90;;;10.67;;
10166;SDS011;62970;53.130;8.244;2022-10-31T07:58:30;19.20;;;10.50;;
10166;SDS011;62970;53.130;8.244;2022-10-31T08:00:59;11.40;;;9.77;;
10166;SDS011;62970;53.130;8.244;2022-10-31T08:03:31;15.10;;;10.33;;
10166;SDS011;62970;53.130;8.244;2022-10-31T08:06:00;10.53;;;9.53;;
10166;SDS011;62970;53.130;8.244;2022-10-31T08:08:29;16.57;;;9.63;;
10166;SDS011;62970;53.130;8.244;2022-10-31T08:10:59;21.90;;;8.93;;
10166;SDS011;62970;53.130;8.244;2022-10-31T08:13:28;30.67;;;10.20;;
10166;SDS011;62970;53.130;8.244;2022-10-31T08:15:57;14.13;;;8.63;;
10166;SDS011;62970;53.130;8.244;2022-10-31T08:18:32;18.97;;;9.63;;
10166;SDS011;62970;53.130;8.244;2022-10-31T08:21:02;33.93;;;9.53;;
10166;SDS011;62970;53.130;8.244;2022-10-31T08:23:31;24.17;;;8.93;;
10166;SDS011;62970;53.130;8.244;2022-10-31T08:26:01;9.07;;;8.27;;
10166;SDS011;62970;53.130;8.244;2022-10-31T08:28:31;15.80;;;9.40;;
10166;SDS011;62970;53.130;8.244;2022-10-31T08:31:00;20.50;;;10.07;;
10166;SDS011;62970;53.130;8.244;2022-10-31T08:33:32;16.33;;;10.10;;
10166;SDS011;62970;53.130;8.244;2022-10-31T08:36:01;11.17;;;10.07;;
10166;SDS011;62970;53.130;8.244;2022-10-31T08:38:30;13.20;;;10.07;;
10166;SDS011;62970;53.130;8.244;2022-10-31T08:41:00;17.03;;;10.43;;
10166;SDS011;62970;53.130;8.244;2022-10-31T08:43:29;12.53;;;10.33;;
10166;SDS011;62970;53.130;8.244;2022-10-31T08:45:59;15.77;;;9.20;;
10166;SDS011;62970;53.130;8.244;2022-10-31T08:48:28;10.00;;;9.10;;
10166;SDS011;62970;53.130;8.244;2022-10-31T08:51:00;11.23;;;9.83;;
10166;SDS011;62970;53.130;8.244;2022-10-31T08:53:30;10.43;;;9.50;;
10166;SDS011;62970;53.130;8.244;2022-10-31T08:55:59;11.03;;;9.97;;
10166;SDS011;62970;53.130;8.244;2022-10-31T08:58:29;11.50;;;9.90;;
10166;SDS011;62970;53.130;8.244;2022-10-31T09:00:58;17.57;;;9.53;;
10166;SDS011;62970;53.130;8.244;2022-10-31T09:03:32;11.50;;;10.50;;
10166;SDS011;62970;53.130;8.244;2022-10-31T09:06:02;11.00;;;10.00;;
10166;SDS011;62970;53.130;8.244;2022-10-31T09:08:34;11.80;;;10.70;;
10166;SDS011;62970;53.130;8.244;2022-10-31T09:11:03;11.77;;;10.67;;
10166;SDS011;62970;53.130;8.244;2022-10-31T09:13:33;15.50;;;11.80;;
10166;SDS011;62970;53.130;8.244;2022-10-31T09:16:04;12.73;;;11.43;;
10166;SDS011;62970;53.130;8.244;2022-10-31T09:18:37;11.77;;;10.67;;
10166;SDS011;62970;53.130;8.244;2022-10-31T09:21:07;12.77;;;11.47;;
10166;SDS011;62970;53.130;8.244;2022-10-31T09:23:36;12.77;;;11.47;;
10166;SDS011;62970;53.130;8.244;2022-10-31T09:26:05;13.13;;;11.77;;
10166;SDS011;62970;53.130;8.244;2022-10-31T09:28:34;12.07;;;10.93;;
10166;SDS011;62970;53.130;8.244;2022-10-31T09:31:04;13.43;;;12.10;;
10166;SDS011;62970;53.130;8.244;2022-10-31T09:33:33;13.20;;;12.00;;
10166;SDS011;62970;53.130;8.244;2022-10-31T09:36:07;12.70;;;11.43;;
10166;SDS011;62970;53.130;8.244;2022-10-31T09:38:36;13.63;;;12.23;;
10166;SDS011;62970;53.130;8.244;2022-10-31T09:41:07;13.63;;;12.33;;
10166;SDS011;62970;53.130;8.244;2022-10-31T09:43:49;13.60;;;12.20;;
10166;SDS011;62970;53.130;8.244;2022-10-31T09:46:27;13.27;;;11.97;;
10166;SDS011;62970;53.130;8.244;2022-10-31T09:49:20;12.53;;;11.33;;
10166;SDS011;62970;53.130;8.244;2022-10-31T09:52:23;12.70;;;11.50;;
10166;SDS011;62970;53.130;8.244;2022-10-31T09:54:58;12.60;;;11.47;;
10166;SDS011;62970;53.130;8.244;2022-10-31T09:57:33;13.60;;;12.40;;
10166;SDS011;62970;53.130;8.244;2022-10-31T10:00:05;13.60;;;12.20;;
10166;SDS011;62970;53.130;8.244;2022-10-31T10:02:44;14.27;;;12.97;;
10166;SDS011;62970;53.130;8.244;2022-10-31T10:05:24;12.77;;;11.53;;
10166;SDS011;62970;53.130;8.244;2022-10-31T10:08:03;13.53;;;12.13;;
10166;SDS011;62970;53.130;8.244;2022-10-31T10:10:44;12.93;;;11.67;;
10166;SDS011;62970;53.130;8.244;2022-10-31T10:13:34;13.37;;;12.07;;
10166;SDS011;62970;53.130;8.244;2022-10-31T10:16:30;12.33;;;11.20;;
10166;SDS011;62970;53.130;8.244;2022-10-31T10:19:26;13.23;;;11.93;;
10166;SDS011;62970;53.130;8.244;2022-10-31T10:22:15;13.30;;;12.10;;
10166;SDS011;62970;53.130;8.244;2022-10-31T10:24:56;12.77;;;11.57;;
10166;SDS011;62970;53.130;8.244;2022-10-31T10:27:46;14.37;;;12.97;;
10166;SDS011;62970;53.130;8.244;2022-10-31T10:30:28;13.00;;;11.73;;
10166;SDS011;62970;53.130;8.244;2022-10-31T10:33:07;14.70;;;13.20;;
10166;SDS011;62970;53.130;8.244;2022-10-31T10:35:40;14.23;;;12.83;;
10166;SDS011;62970;53.130;8.244;2022-10-31T10:38:20;15.03;;;13.63;;
10166;SDS011;62970;53.130;8.244;2022-10-31T10:40:55;16.13;;;14.40;;
10166;SDS011;62970;53.130;8.244;2022-10-31T10:43:38;15.07;;;13.47;;
10166;SDS011;62970;53.130;8.244;2022-10-31T10:46:18;14.83;;;13.33;;
10166;SDS011;62970;53.130;8.244;2022-10-31T10:49:08;15.10;;;13.50;;
10166;SDS011;62970;53.130;8.244;2022-10-31T10:51:47;17.43;;;14.17;;
10166;SDS011;62970;53.130;8.244;2022-10-31T10:54:39;15.53;;;13.90;;
10166;SDS011;62970;53.130;8.244;2022-10-31T11:00:25;15.67;;;13.93;;
10166;SDS011;62970;53.130;8.244;2022-10-31T11:02:58;16.27;;;14.20;;
10166;SDS011;62970;53.130;8.244;2022-10-31T11:05:30;16.33;;;14.63;;
10166;SDS011;62970;53.130;8.244;2022-10-31T11:08:05;17.53;;;15.37;;
10166;SDS011;62970;53.130;8.244;2022-10-31T11:10:38;16.63;;;14.63;;
10166;SDS011;62970;53.130;8.244;2022-10-31T11:13:17;16.43;;;14.67;;
10166;SDS011;62970;53.130;8.244;2022-10-31T11:16:03;15.43;;;13.63;;
10166;SDS011;62970;53.130;8.244;2022-10-31T11:18:37;17.80;;;14.80;;
10166;SDS011;62970;53.130;8.244;2022-10-31T11:21:19;17.30;;;13.93;;
10166;SDS011;62970;53.130;8.244;2022-10-31T11:24:01;15.93;;;13.83;;
10166;SDS011;62970;53.130;8.244;2022-10-31T11:26:44;13.87;;;11.93;;
10166;SDS011;62970;53.130;8.244;2022-10-31T11:29:16;14.80;;;12.37;;
10166;SDS011;62970;53.130;8.244;2022-10-31T11:31:51;14.50;;;12.90;;
10166;SDS011;62970;53.130;8.244;2022-10-31T11:34:28;15.50;;;13.10;;
10166;SDS011;62970;53.130;8.244;2022-10-31T11:37:02;16.97;;;13.90;;
10166;SDS011;62970;53.130;8.244;2022-10-31T11:39:40;15.40;;;12.80;;
10166;SDS011;62970;53.130;8.244;2022-10-31T11:42:16;15.33;;;13.10;;
10166;SDS011;62970;53.130;8.244;2022-10-31T11:44:46;15.53;;;12.53;;
10166;SDS011;62970;53.130;8.244;2022-10-31T11:47:17;13.93;;;11.53;;
10166;SDS011;62970;53.130;8.244;2022-10-31T11:49:52;16.47;;;11.93;;
10166;SDS011;62970;53.130;8.244;2022-10-31T11:52:24;16.03;;;11.77;;
10166;SDS011;62970;53.130;8.244;2022-10-31T11:55:01;15.97;;;12.97;;
10166;SDS011;62970;53.130;8.244;2022-10-31T11:57:46;13.23;;;11.27;;
10166;SDS011;62970;53.130;8.244;2022-10-31T12:00:22;15.57;;;12.23;;
10166;SDS011;62970;53.130;8.244;2022-10-31T12:03:09;16.23;;;12.20;;
10166;SDS011;62970;53.130;8.244;2022-10-31T12:05:42;15.10;;;11.63;;
10166;SDS011;62970;53.130;8.244;2022-10-31T12:08:15;16.13;;;12.37;;
10166;SDS011;62970;53.130;8.244;2022-10-31T12:10:46;14.83;;;11.47;;
10166;SDS011;62970;53.130;8.244;2022-10-31T12:13:32;16.50;;;12.87;;
10166;SDS011;62970;53.130;8.244;2022-10-31T12:16:09;14.17;;;12.40;;
10166;SDS011;62970;53.130;8.244;2022-10-31T12:18:57;15.47;;;11.80;;
10166;SDS011;62970;53.130;8.244;2022-10-31T12:21:44;14.87;;;12.13;;
10166;SDS011;62970;53.130;8.244;2022-10-31T12:24:47;13.87;;;11.73;;
10166;SDS011;62970;53.130;8.244;2022-10-31T12:27:34;13.83;;;11.60;;
10166;SDS011;62970;53.130;8.244;2022-10-31T12:30:23;17.60;;;13.13;;
10166;SDS011;62970;53.130;8.244;2022-10-31T12:33:05;14.40;;;12.80;;
10166;SDS011;62970;53.130;8.244;2022-10-31T12:36:05;14.00;;;12.17;;
10166;SDS011;62970;53.130;8.244;2022-10-31T12:39:02;17.37;;;13.37;;
10166;SDS011;62970;53.130;8.244;2022-10-31T12:41:46;14.87;;;12.80;;
10166;SDS011;62970;53.130;8.244;2022-10-31T12:47:52;14.40;;;12.00;;
10166;SDS011;62970;53.130;8.244;2022-10-31T12:51:01;14.13;;;11.43;;
10166;SDS011;62970;53.130;8.244;2022-10-31T12:53:40;13.53;;;11.83;;
10166;SDS011;62970;53.130;8.244;2022-10-31T12:56:30;14.47;;;12.03;;
10166;SDS011;62970;53.130;8.244;2022-10-31T12:59:17;17.17;;;12.37;;
10166;SDS011;62970;53.130;8.244;2022-10-31T13:01:57;14.67;;;11.90;;
10166;SDS011;62970;53.130;8.244;2022-10-31T13:04:40;14.67;;;12.60;;
10166;SDS011;62970;53.130;8.244;2022-10-31T13:07:17;15.43;;;12.67;;
10166;SDS011;62970;53.130;8.244;2022-10-31T13:09:54;17.20;;;13.50;;
10166;SDS011;62970;53.130;8.244;2022-10-31T13:12:31;15.03;;;13.17;;
10166;SDS011;62970;53.130;8.244;2022-10-31T13:15:03;16.57;;;14.77;;
10166;SDS011;62970;53.130;8.244;2022-10-31T13:17:45;16.03;;;14.33;;
10166;SDS011;62970;53.130;8.244;2022-10-31T13:20:21;17.23;;;15.43;;
10166;SDS011;62970;53.130;8.244;2022-10-31T13:22:56;16.77;;;15.00;;
10166;SDS011;62970;53.130;8.244;2022-10-31T13:25:36;15.37;;;13.63;;
10166;SDS011;62970;53.130;8.244;2022-10-31T13:28:12;16.30;;;14.63;;
10166;SDS011;62970;53.130;8.244;2022-10-31T13:30:53;17.67;;;15.77;;
10166;SDS011;62970;53.130;8.244;2022-10-31T13:33:23;17.80;;;15.57;;
10166;SDS011;62970;53.130;8.244;2022-10-31T13:36:04;16.57;;;14.87;;
10166;SDS011;62970;53.130;8.244;2022-10-31T13:38:46;16.63;;;14.87;;
10166;SDS011;62970;53.130;8.244;2022-10-31T13:41:30;16.77;;;14.90;;
10166;SDS011;62970;53.130;8.244;2022-10-31T13:44:13;16.07;;;14.37;;
10166;SDS011;62970;53.130;8.244;2022-10-31T13:46:46;15.20;;;13.53;;
10166;SDS011;62970;53.130;8.244;2022-10-31T13:49:24;15.43;;;13.70;;
10166;SDS011;62970;53.130;8.244;2022-10-31T13:52:10;17.47;;;13.30;;
10166;SDS011;62970;53.130;8.244;2022-10-31T13:54:43;14.73;;;12.83;;
10166;SDS011;62970;53.130;8.244;2022-10-31T13:57:22;14.20;;;12.47;;
10166;SDS011;62970;53.130;8.244;2022-10-31T14:00:00;15.23;;;12.50;;
10166;SDS011;62970;53.130;8.244;2022-10-31T14:02:33;14.90;;;11.57;;
10166;SDS011;62970;53.130;8.244;2022-10-31T14:05:05;14.33;;;11.93;;
10166;SDS011;62970;53.130;8.244;2022-10-31T14:07:53;17.53;;;12.33;;
10166;SDS011;62970;53.130;8.244;2022-10-31T14:10:25;14.97;;;12.10;;
10166;SDS011;62970;53.130;8.244;2022-10-31T14:13:03;14.27;;;12.07;;
10166;SDS011;62970;53.130;8.244;2022-10-31T14:15:36;15.17;;;12.00;;
10166;SDS011;62970;53.130;8.244;2022-10-31T14:18:17;16.70;;;12.77;;
10166;SDS011;62970;53.130;8.244;2022-10-31T14:20:52;16.50;;;13.73;;
10166;SDS011;62970;53.130;8.244;2022-10-31T14:23:39;15.37;;;13.30;;
10166;SDS011;62970;53.130;8.244;2022-10-31T14:26:17;15.27;;;13.67;;
10166;SDS011;62970;53.130;8.244;2022-10-31T14:31:57;16.80;;;14.70;;
10166;SDS011;62970;53.130;8.244;2022-10-31T14:34:38;15.40;;;13.80;;
10166;SDS011;62970;53.130;8.244;2022-10-31T14:40:27;18.43;;;15.33;;
10166;SDS011;62970;53.130;8.244;2022-10-31T14:43:24;17.83;;;15.17;;
10166;SDS011;62970;53.130;8.244;2022-10-31T14:46:11;17.80;;;15.90;;
10166;SDS011;62970;53.130;8.244;2022-10-31T14:49:01;19.37;;;17.47;;
10166;SDS011;62970;53.130;8.244;2022-10-31T14:51:45;18.10;;;15.80;;
10166;SDS011;62970;53.130;8.244;2022-10-31T14:54:17;22.33;;;16.90;;
10166;SDS011;62970;53.130;8.244;2022-10-31T14:56:56;18.57;;;16.63;;
10166;SDS011;62970;53.130;8.244;2022-10-31T14:59:31;17.20;;;15.33;;
10166;SDS011;62970;53.130;8.244;2022-10-31T15:02:08;16.80;;;15.03;;
10166;SDS011;62970;53.130;8.244;2022-10-31T15:04:42;17.77;;;15.93;;
10166;SDS011;62970;53.130;8.244;2022-10-31T15:07:16;19.60;;;16.53;;
10166;SDS011;62970;53.130;8.244;2022-10-31T15:09:55;18.80;;;16.47;;
10166;SDS011;62970;53.130;8.244;2022-10-31T15:12:28;17.57;;;15.83;;
10166;SDS011;62970;53.130;8.244;2022-10-31T15:15:10;18.43;;;16.43;;
10166;SDS011;62970;53.130;8.244;2022-10-31T15:17:41;20.20;;;16.47;;
10166;SDS011;62970;53.130;8.244;2022-10-31T15:20:16;17.20;;;15.23;;
10166;SDS011;62970;53.130;8.244;2022-10-31T15:22:48;18.43;;;16.37;;
10166;SDS011;62970;53.130;8.244;2022-10-31T15:25:18;18.87;;;15.93;;